Time;durP1;ratioP1;P1;durP2;ratioP2;P2;SDS_P1;SDS_P2;PMS_P1;PMS_P2;Temp;Humidity;BMP_temperature;BMP_pressure;BME280_temperature;BME280_humidity;BME280_pressure;Samples;Min_cycle;Max_cycle;Signal;HPM_P1;HPM_P2
2024/03/14 00:00:49;;;;;;;11.25;6.28;;;;;;;;;;7559533;19;20545;-73
2024/03/14 00:03:22;;;;;;;9.63;6.37;;;;;;;;;;7574786;19;20030;-73
2024/03/14 00:05:55;;;;;;;11.88;6.32;;;;;;;;;;7566789;19;20026;-73
2024/03/14 00:08:28;;;;;;;7.70;5.75;;;;;;;;;;7565108;19;20026;-73
2024/03/14 00:11:02;;;;;;;;;;;;;;;;;;7553890;19;20014;-75
2024/03/14 00:13:34;;;;;;;9.07;6.32;;;;;;;;;;7569382;19;19989;-75
2024/03/14 00:16:10;;;;;;;10.47;7.23;;;;;;;;;;7565676;19;20674;-75
2024/03/14 00:18:44;;;;;;;9.35;6.60;;;;;;;;;;7567645;19;20014;-74
2024/03/14 00:21:18;;;;;;;10.73;6.82;;;;;;;;;;7564145;19;20465;-75
2024/03/14 00:23:51;;;;;;;13.50;7.15;;;;;;;;;;7576168;19;20026;-74
2024/03/14 00:26:24;;;;;;;;;;;;;;;;;;7570511;19;20348;-74
2024/03/14 00:28:57;;;;;;;10.27;6.70;;;;;;;;;;7565526;19;20562;-74
2024/03/14 00:31:30;;;;;;;13.48;7.55;;;;;;;;;;7548306;19;20014;-74
2024/03/14 00:34:03;;;;;;;14.93;8.52;;;;;;;;;;7549043;19;20026;-75
2024/03/14 00:36:39;;;;;;;12.60;8.23;;;;;;;;;;7565414;19;20118;-75
2024/03/14 00:39:11;;;;;;;14.95;9.02;;;;;;;;;;7568022;19;20026;-75
2024/03/14 00:41:44;;;;;;;13.10;8.70;;;;;;;;;;7564362;19;20025;-74
2024/03/14 00:44:17;;;;;;;17.23;9.27;;;;;;;;;;7559662;19;20022;-73
2024/03/14 00:46:50;;;;;;;11.95;8.82;;;;;;;;;;7569743;19;20026;-73
2024/03/14 00:49:23;;;;;;;15.57;10.13;;;;;;;;;;7564702;19;20050;-73
2024/03/14 00:51:57;;;;;;;14.48;8.52;;;;;;;;;;7561834;19;20890;-73
2024/03/14 00:54:31;;;;;;;14.65;8.48;;;;;;;;;;7552425;19;20029;-73
2024/03/14 00:57:04;;;;;;;15.23;8.52;;;;;;;;;;7568189;19;20025;-74
2024/03/14 00:59:39;;;;;;;14.32;8.18;;;;;;;;;;7551285;19;20020;-74
2024/03/14 01:02:12;;;;;;;14.23;8.23;;;;;;;;;;7563416;19;20026;-73
2024/03/14 01:04:45;;;;;;;10.93;7.47;;;;;;;;;;7557188;19;20010;-73
2024/03/14 01:07:19;;;;;;;;;;;;;;;;;;7559865;19;21261;-75
2024/03/14 01:09:51;;;;;;;11.27;6.13;;;;;;;;;;7568815;19;19970;-73
2024/03/14 01:12:24;;;;;;;15.33;7.63;;;;;;;;;;7565239;19;20023;-73
2024/03/14 01:14:57;;;;;;;10.77;6.50;;;;;;;;;;7568118;19;20019;-73
2024/03/14 01:17:30;;;;;;;8.60;5.57;;;;;;;;;;7563440;19;20071;-73
2024/03/14 01:20:03;;;;;;;9.40;5.47;;;;;;;;;;7564737;19;20290;-73
2024/03/14 01:22:36;;;;;;;7.07;5.07;;;;;;;;;;7577290;19;20010;-73
2024/03/14 01:25:10;;;;;;;10.45;6.15;;;;;;;;;;7567986;19;21046;-73
2024/03/14 01:27:45;;;;;;;7.90;5.10;;;;;;;;;;7575415;19;20094;-73
2024/03/14 01:30:17;;;;;;;8.10;4.82;;;;;;;;;;7584838;19;22384;-73
2024/03/14 01:32:51;;;;;;;7.10;4.90;;;;;;;;;;7581790;19;20026;-73
2024/03/14 01:35:24;;;;;;;7.93;4.63;;;;;;;;;;7568501;19;20029;-73
2024/03/14 01:37:58;;;;;;;7.32;4.82;;;;;;;;;;7561236;19;20014;-73
2024/03/14 01:40:31;;;;;;;7.95;5.35;;;;;;;;;;7560272;19;20025;-73
2024/03/14 01:43:04;;;;;;;10.20;6.80;;;;;;;;;;7566862;19;20019;-73
2024/03/14 01:45:37;;;;;;;7.60;4.80;;;;;;;;;;7562025;19;20026;-73
2024/03/14 01:48:10;;;;;;;6.57;4.78;;;;;;;;;;7571127;19;20042;-73
2024/03/14 01:50:43;;;;;;;8.90;5.20;;;;;;;;;;7572713;19;20090;-74
2024/03/14 01:53:16;;;;;;;6.00;4.20;;;;;;;;;;7575842;19;20014;-74
2024/03/14 01:55:49;;;;;;;7.40;4.35;;;;;;;;;;7549421;19;20022;-73
2024/03/14 01:58:25;;;;;;;6.23;4.57;;;;;;;;;;7576183;19;20682;-74
2024/03/14 02:01:00;;;;;;;7.40;4.93;;;;;;;;;;7559026;19;20543;-74
2024/03/14 02:03:33;;;;;;;6.40;4.47;;;;;;;;;;7570375;19;20091;-74
2024/03/14 02:06:15;;;;;;;9.00;4.63;;;;;;;;;;7568621;19;20010;-74
2024/03/14 02:08:48;;;;;;;8.75;5.03;;;;;;;;;;7565362;19;20282;-74
2024/03/14 02:11:21;;;;;;;7.00;5.00;;;;;;;;;;7572591;19;20547;-74
2024/03/14 02:13:55;;;;;;;8.43;5.23;;;;;;;;;;7580619;19;20453;-74
2024/03/14 02:16:28;;;;;;;7.07;4.90;;;;;;;;;;7574778;19;21200;-74
2024/03/14 02:19:01;;;;;;;6.83;4.93;;;;;;;;;;7572452;19;20014;-74
2024/03/14 02:21:34;;;;;;;10.70;5.15;;;;;;;;;;7557215;19;20718;-74
2024/03/14 02:24:07;;;;;;;10.03;5.47;;;;;;;;;;7577367;19;20656;-74
2024/03/14 02:26:40;;;;;;;9.73;5.82;;;;;;;;;;7576394;19;20059;-73
2024/03/14 02:29:14;;;;;;;9.85;5.85;;;;;;;;;;7561949;19;20029;-73
2024/03/14 02:31:47;;;;;;;10.50;6.40;;;;;;;;;;7570563;19;20897;-72
2024/03/14 02:34:20;;;;;;;7.70;4.90;;;;;;;;;;7568487;19;20013;-73
2024/03/14 02:36:53;;;;;;;5.83;4.33;;;;;;;;;;7581247;19;20015;-73
2024/03/14 02:39:26;;;;;;;5.75;4.10;;;;;;;;;;7567398;19;20507;-73
2024/03/14 02:41:59;;;;;;;9.00;5.00;;;;;;;;;;7572039;19;20752;-73
2024/03/14 02:44:33;;;;;;;8.40;5.10;;;;;;;;;;7562933;19;20082;-74
2024/03/14 02:47:08;;;;;;;9.38;5.15;;;;;;;;;;7540554;19;20494;-73
2024/03/14 02:49:41;;;;;;;6.28;4.05;;;;;;;;;;7567344;19;20022;-73
2024/03/14 02:52:15;;;;;;;4.47;3.60;;;;;;;;;;7559339;19;20038;-73
2024/03/14 02:54:48;;;;;;;7.85;5.07;;;;;;;;;;7564117;19;20033;-73
2024/03/14 02:57:21;;;;;;;7.50;5.00;;;;;;;;;;7558604;19;20018;-73
2024/03/14 02:59:53;;;;;;;8.40;4.70;;;;;;;;;;7550492;19;20119;-74
2024/03/14 03:02:26;;;;;;;6.00;4.60;;;;;;;;;;7574618;19;20336;-73
2024/03/14 03:05:00;;;;;;;;;;;;;;;;;;7583100;19;20275;-73
2024/03/14 03:07:34;;;;;;;7.18;4.50;;;;;;;;;;7569146;19;19926;-73
2024/03/14 03:10:07;;;;;;;8.52;5.22;;;;;;;;;;7561062;19;20023;-74
2024/03/14 03:12:40;;;;;;;5.82;3.92;;;;;;;;;;7573989;19;20456;-74
2024/03/14 03:15:14;;;;;;;5.72;4.28;;;;;;;;;;7561910;19;21153;-74
2024/03/14 03:17:47;;;;;;;5.00;3.95;;;;;;;;;;7575958;19;21559;-73
2024/03/14 03:20:20;;;;;;;6.47;4.20;;;;;;;;;;7565330;19;20903;-74
2024/03/14 03:23:09;;;;;;;8.30;4.53;;;;;;;;;;7578141;19;20018;-73
2024/03/14 03:25:43;;;;;;;4.22;3.60;;;;;;;;;;7569145;19;20301;-73
2024/03/14 03:28:15;;;;;;;9.30;4.82;;;;;;;;;;7575729;19;21454;-73
2024/03/14 03:30:48;;;;;;;5.70;3.77;;;;;;;;;;7569432;19;20022;-73
2024/03/14 03:33:23;;;;;;;9.20;5.23;;;;;;;;;;7572455;19;20201;-73
2024/03/14 03:35:56;;;;;;;7.97;4.13;;;;;;;;;;7565901;19;20272;-74
2024/03/14 03:38:29;;;;;;;6.32;4.63;;;;;;;;;;7567767;19;20020;-73
2024/03/14 03:41:02;;;;;;;5.50;4.00;;;;;;;;;;7568844;19;20011;-73
2024/03/14 03:43:35;;;;;;;10.25;5.07;;;;;;;;;;7571055;19;20121;-74
2024/03/14 03:46:09;;;;;;;9.70;4.63;;;;;;;;;;7571496;19;20810;-74
2024/03/14 03:48:42;;;;;;;9.18;4.97;;;;;;;;;;7580823;19;20029;-73
2024/03/14 03:51:18;;;;;;;5.00;3.40;;;;;;;;;;7563528;19;20094;-74
2024/03/14 03:53:52;;;;;;;5.70;3.42;;;;;;;;;;7576559;19;20025;-73
2024/03/14 03:56:24;;;;;;;5.75;3.67;;;;;;;;;;7534553;19;20796;-73
2024/03/14 03:58:58;;;;;;;7.37;3.40;;;;;;;;;;7552177;19;20481;-73
2024/03/14 04:01:33;;;;;;;;;;;;;;;;;;7574573;19;20015;-74
2024/03/14 04:04:05;;;;;;;6.18;3.78;;;;;;;;;;7573641;19;19922;-73
2024/03/14 04:06:38;;;;;;;5.07;3.73;;;;;;;;;;7570270;19;20060;-73
2024/03/14 04:09:15;;;;;;;6.03;4.20;;;;;;;;;;7564377;19;20026;-73
2024/03/14 04:11:48;;;;;;;9.93;3.97;;;;;;;;;;7571000;19;20558;-73
2024/03/14 04:14:21;;;;;;;5.47;3.20;;;;;;;;;;7563948;19;20063;-73
2024/03/14 04:16:54;;;;;;;5.20;3.50;;;;;;;;;;7581226;19;20061;-73
2024/03/14 04:19:26;;;;;;;6.73;4.07;;;;;;;;;;7567996;19;20018;-73
2024/03/14 04:21:59;;;;;;;8.03;4.33;;;;;;;;;;7574320;19;20279;-73
2024/03/14 04:24:32;;;;;;;5.53;3.22;;;;;;;;;;7567891;19;20014;-73
2024/03/14 04:27:06;;;;;;;4.70;3.70;;;;;;;;;;7575125;19;20381;-74
2024/03/14 04:29:40;;;;;;;4.13;3.20;;;;;;;;;;7541463;19;20026;-74
2024/03/14 04:32:13;;;;;;;6.63;3.85;;;;;;;;;;7563734;19;20033;-73
2024/03/14 04:34:45;;;;;;;8.68;4.07;;;;;;;;;;7568440;19;20137;-73
2024/03/14 04:37:18;;;;;;;8.10;3.78;;;;;;;;;;7569474;19;20037;-73
2024/03/14 04:39:51;;;;;;;5.30;3.70;;;;;;;;;;7571194;19;20021;-73
2024/03/14 04:42:24;;;;;;;5.80;3.65;;;;;;;;;;7551503;19;20011;-73
2024/03/14 04:44:57;;;;;;;5.57;3.20;;;;;;;;;;7548646;19;20404;-73
2024/03/14 04:47:29;;;;;;;4.77;3.77;;;;;;;;;;7554209;19;20934;-74
2024/03/14 04:50:03;;;;;;;6.37;3.60;;;;;;;;;;7558816;19;20680;-73
2024/03/14 04:52:36;;;;;;;5.68;3.50;;;;;;;;;;7547128;19;20366;-73
2024/03/14 04:55:10;;;;;;;5.75;4.13;;;;;;;;;;7544509;19;20031;-73
2024/03/14 04:57:43;;;;;;;4.68;3.38;;;;;;;;;;7560083;19;22077;-75
2024/03/14 05:02:55;;;;;;;4.78;3.70;;;;;;;;;;7565592;19;20271;-75
2024/03/14 05:05:28;;;;;;;4.55;3.28;;;;;;;;;;7554595;19;20037;-74
2024/03/14 05:08:01;;;;;;;5.27;3.70;;;;;;;;;;7561465;19;20638;-74
2024/03/14 05:10:34;;;;;;;4.40;3.22;;;;;;;;;;7557961;19;20018;-74
2024/03/14 05:13:06;;;;;;;6.35;4.00;;;;;;;;;;7556496;19;20130;-74
2024/03/14 05:15:40;;;;;;;7.33;3.50;;;;;;;;;;7556552;19;20017;-74
2024/03/14 05:18:14;;;;;;;4.78;3.13;;;;;;;;;;7561871;19;20023;-75
2024/03/14 05:20:47;;;;;;;6.90;3.13;;;;;;;;;;7561064;19;20019;-74
2024/03/14 05:23:21;;;;;;;5.53;3.47;;;;;;;;;;7559432;19;20003;-74
2024/03/14 05:25:54;;;;;;;5.22;3.47;;;;;;;;;;7548675;19;20033;-74
2024/03/14 05:28:27;;;;;;;4.70;2.97;;;;;;;;;;7550881;19;20022;-75
2024/03/14 05:31:01;;;;;;;7.90;4.50;;;;;;;;;;7555830;19;20030;-74
2024/03/14 05:33:35;;;;;;;9.85;5.80;;;;;;;;;;7555475;19;20038;-75
2024/03/14 05:36:08;;;;;;;9.32;5.28;;;;;;;;;;7514667;19;20060;-75
2024/03/14 05:38:41;;;;;;;5.70;4.70;;;;;;;;;;7533204;19;20033;-74
2024/03/14 05:41:15;;;;;;;9.53;5.13;;;;;;;;;;7561799;19;20683;-75
2024/03/14 05:43:48;;;;;;;6.88;4.68;;;;;;;;;;7546276;19;21003;-74
2024/03/14 05:46:21;;;;;;;5.13;4.23;;;;;;;;;;7528535;19;20138;-76
2024/03/14 05:48:54;;;;;;;6.10;3.90;;;;;;;;;;7567043;19;21147;-75
2024/03/14 05:51:27;;;;;;;6.20;3.88;;;;;;;;;;7536929;19;20608;-73
2024/03/14 05:54:00;;;;;;;5.90;3.60;;;;;;;;;;7548330;19;20763;-74
2024/03/14 05:56:33;;;;;;;10.65;3.75;;;;;;;;;;7522579;19;20018;-74
2024/03/14 05:59:06;;;;;;;6.07;3.53;;;;;;;;;;7547363;19;20011;-73
2024/03/14 06:01:40;;;;;;;4.47;3.10;;;;;;;;;;7551442;19;20006;-74
2024/03/14 06:04:13;;;;;;;5.63;3.28;;;;;;;;;;7555463;19;20019;-74
2024/03/14 06:06:46;;;;;;;5.68;3.17;;;;;;;;;;7557758;19;20651;-73
2024/03/14 06:09:31;;;;;;;4.45;2.88;;;;;;;;;;7536292;19;20014;-76
2024/03/14 06:12:05;;;;;;;4.53;3.10;;;;;;;;;;7485626;19;20022;-73
2024/03/14 06:14:39;;;;;;;3.80;2.90;;;;;;;;;;7515377;19;20010;-75
2024/03/14 06:17:12;;;;;;;3.53;2.88;;;;;;;;;;7514140;19;20094;-74
2024/03/14 06:19:46;;;;;;;4.45;3.25;;;;;;;;;;7537182;19;20030;-76
2024/03/14 06:22:19;;;;;;;;;;;;;;;;;;7547351;19;20021;-74
2024/03/14 06:24:52;;;;;;;6.18;3.72;;;;;;;;;;7553315;19;19928;-76
2024/03/14 06:27:24;;;;;;;8.93;3.78;;;;;;;;;;7537872;19;20025;-75
2024/03/14 06:29:57;;;;;;;6.55;3.10;;;;;;;;;;7538510;19;20055;-77
2024/03/14 06:32:30;;;;;;;4.80;2.17;;;;;;;;;;7487989;19;22558;-75
2024/03/14 06:35:04;;;;;;;7.00;2.38;;;;;;;;;;7475611;19;20047;-74
2024/03/14 06:37:37;;;;;;;4.53;2.25;;;;;;;;;;7538341;19;21109;-76
2024/03/14 06:40:14;;;;;;;5.35;1.90;;;;;;;;;;7536910;19;20038;-75
2024/03/14 06:42:48;;;;;;;1.80;1.17;;;;;;;;;;7541957;19;20042;-75
2024/03/14 06:45:22;;;;;;;7.38;1.92;;;;;;;;;;7541693;19;20365;-75
2024/03/14 06:47:55;;;;;;;3.92;1.90;;;;;;;;;;7558807;19;20128;-75
2024/03/14 06:50:31;;;;;;;3.07;1.80;;;;;;;;;;7548315;19;20461;-75
2024/03/14 06:53:04;;;;;;;5.10;1.90;;;;;;;;;;7572278;19;20015;-76
2024/03/14 06:55:37;;;;;;;2.60;1.63;;;;;;;;;;7547708;19;20018;-74
2024/03/14 06:58:16;;;;;;;1.98;1.50;;;;;;;;;;7559033;19;20387;-74
2024/03/14 07:00:49;;;;;;;9.57;1.85;;;;;;;;;;7549057;19;20017;-77
2024/03/14 07:03:22;;;;;;;9.85;1.92;;;;;;;;;;7555139;19;20014;-74
2024/03/14 07:05:57;;;;;;;1.70;1.30;;;;;;;;;;7563238;19;20606;-75
2024/03/14 07:08:30;;;;;;;2.65;1.70;;;;;;;;;;7552488;19;20022;-74
2024/03/14 07:11:04;;;;;;;;;;;;;;;;;;7548475;19;20030;-74
2024/03/14 07:13:37;;;;;;;2.92;1.50;;;;;;;;;;7544326;19;19945;-75
2024/03/14 07:16:10;;;;;;;3.30;1.80;;;;;;;;;;7556373;19;20014;-74
2024/03/14 07:18:45;;;;;;;7.30;2.07;;;;;;;;;;7510686;19;20029;-73
2024/03/14 07:21:18;;;;;;;4.72;2.25;;;;;;;;;;7565659;19;20022;-73
2024/03/14 07:23:53;;;;;;;7.63;2.93;;;;;;;;;;7552702;19;20014;-74
2024/03/14 07:26:32;;;;;;;8.18;3.03;;;;;;;;;;7577001;19;20041;-73
2024/03/14 07:29:05;;;;;;;4.38;2.80;;;;;;;;;;7567178;19;20048;-73
2024/03/14 07:31:38;;;;;;;7.25;3.40;;;;;;;;;;7563173;19;20015;-73
2024/03/14 07:34:11;;;;;;;;;;;;;;;;;;7571779;19;20030;-73
2024/03/14 07:36:45;;;;;;;7.72;2.60;;;;;;;;;;7568748;19;20929;-72
2024/03/14 07:39:24;;;;;;;16.55;3.58;;;;;;;;;;7562961;19;20022;-74
2024/03/14 07:41:58;;;;;;;9.43;3.70;;;;;;;;;;7566887;19;20014;-73
2024/03/14 07:44:31;;;;;;;12.57;3.90;;;;;;;;;;7572582;19;20029;-73
2024/03/14 07:47:05;;;;;;;8.57;3.35;;;;;;;;;;7569946;19;20014;-73
2024/03/14 07:49:39;;;;;;;6.00;3.30;;;;;;;;;;7562577;19;20019;-74
2024/03/14 07:52:13;;;;;;;10.00;3.17;;;;;;;;;;7578128;19;20014;-73
2024/03/14 07:54:47;;;;;;;5.53;2.50;;;;;;;;;;7569367;19;20015;-74
2024/03/14 07:57:21;;;;;;;5.40;2.75;;;;;;;;;;7582123;19;20021;-74
2024/03/14 07:59:53;;;;;;;7.50;2.40;;;;;;;;;;7559062;19;20021;-74
2024/03/14 08:02:26;;;;;;;7.60;3.53;;;;;;;;;;7515582;19;20026;-73
2024/03/14 08:05:06;;;;;;;5.32;2.50;;;;;;;;;;7552934;19;20014;-73
2024/03/14 08:07:39;;;;;;;18.90;16.95;;;;;;;;;;7553966;19;20562;-73
2024/03/14 08:10:12;;;;;;;2.10;1.80;;;;;;;;;;7542641;19;20022;-74
2024/03/14 08:12:45;;;;;;;4.43;2.22;;;;;;;;;;7550527;19;21280;-74
2024/03/14 08:15:17;;;;;;;4.30;2.72;;;;;;;;;;7557558;19;20028;-76
2024/03/14 08:17:50;;;;;;;3.67;2.47;;;;;;;;;;7542442;19;20030;-73
2024/03/14 08:20:24;;;;;;;6.37;3.37;;;;;;;;;;7572875;19;20018;-73
2024/03/14 08:22:57;;;;;;;5.82;2.13;;;;;;;;;;7565344;19;21249;-76
2024/03/14 08:25:30;;;;;;;3.03;2.13;;;;;;;;;;7559568;19;20018;-75
2024/03/14 08:28:04;;;;;;;4.43;2.13;;;;;;;;;;7578334;19;20935;-76
2024/03/14 08:30:38;;;;;;;3.63;2.10;;;;;;;;;;7540825;19;20630;-75
2024/03/14 08:33:13;;;;;;;5.00;2.10;;;;;;;;;;7564239;19;20025;-73
2024/03/14 08:35:46;;;;;;;3.55;1.88;;;;;;;;;;7569767;19;20030;-73
2024/03/14 08:38:19;;;;;;;5.75;1.88;;;;;;;;;;7554588;19;20598;-73
2024/03/14 08:40:52;;;;;;;11.48;2.03;;;;;;;;;;7561349;19;20061;-73
2024/03/14 08:43:25;;;;;;;3.60;2.10;;;;;;;;;;7572331;19;20018;-73
2024/03/14 08:45:58;;;;;;;54.80;7.73;;;;;;;;;;7570507;19;20015;-73
2024/03/14 08:48:31;;;;;;;4.93;2.38;;;;;;;;;;7568533;19;20018;-73
2024/03/14 08:51:04;;;;;;;5.20;1.53;;;;;;;;;;7578180;19;20026;-73
2024/03/14 08:54:07;;;;;;;4.85;1.25;;;;;;;;;;7569674;19;20006;-73
2024/03/14 08:56:31;;;;;;;4.07;1.30;;;;;;;;;;7558910;19;20093;-72
2024/03/14 08:59:04;;;;;;;3.83;1.67;;;;;;;;;;7568871;19;20026;-72
2024/03/14 09:01:37;;;;;;;3.80;1.08;;;;;;;;;;7542928;19;20592;-72
2024/03/14 09:04:10;;;;;;;1.63;1.20;;;;;;;;;;7558763;19;20695;-73
2024/03/14 09:06:43;;;;;;;3.72;1.15;;;;;;;;;;7565166;19;20094;-73
2024/03/14 09:09:34;;;;;;;3.28;1.00;;;;;;;;;;7561544;19;20015;-72
2024/03/14 09:12:13;;;;;;;4.07;1.15;;;;;;;;;;7548887;19;20022;-72
2024/03/14 09:14:50;;;;;;;4.10;1.17;;;;;;;;;;7559580;19;20828;-72
2024/03/14 09:17:23;;;;;;;94.97;12.52;;;;;;;;;;7574735;19;20015;-72
2024/03/14 09:19:56;;;;;;;16.37;2.57;;;;;;;;;;7558350;19;20067;-72
2024/03/14 09:22:28;;;;;;;3.42;2.05;;;;;;;;;;7566584;19;20381;-73
2024/03/14 09:25:02;;;;;;;4.03;1.20;;;;;;;;;;7558986;19;21260;-73
2024/03/14 09:27:34;;;;;;;5.50;1.20;;;;;;;;;;7519725;19;20030;-73
2024/03/14 09:30:08;;;;;;;3.40;1.27;;;;;;;;;;7570189;19;21358;-73
2024/03/14 09:32:42;;;;;;;3.92;1.00;;;;;;;;;;7574122;19;20023;-73
2024/03/14 09:35:16;;;;;;;1.52;1.00;;;;;;;;;;7572928;19;20943;-73
2024/03/14 09:37:49;;;;;;;1.88;1.00;;;;;;;;;;7567016;19;20464;-74
2024/03/14 09:40:23;;;;;;;15.02;1.67;;;;;;;;;;7567368;19;20908;-73
2024/03/14 09:42:57;;;;;;;2.15;1.00;;;;;;;;;;7559530;19;20075;-74
2024/03/14 09:45:30;;;;;;;1.27;1.15;;;;;;;;;;7566851;19;20054;-74
2024/03/14 09:48:03;;;;;;;2.30;1.27;;;;;;;;;;7556801;19;20019;-74
2024/03/14 09:50:36;;;;;;;3.67;1.10;;;;;;;;;;7568530;19;20282;-73
2024/03/14 09:53:15;;;;;;;1.15;0.90;;;;;;;;;;7571032;19;20006;-73
2024/03/14 09:55:48;;;;;;;0.70;0.63;;;;;;;;;;7572010;19;20354;-74
2024/03/14 09:58:21;;;;;;;1.23;0.98;;;;;;;;;;7530103;19;20048;-73
2024/03/14 10:00:54;;;;;;;1.20;0.85;;;;;;;;;;7569652;19;20010;-74
2024/03/14 10:03:27;;;;;;;3.88;1.27;;;;;;;;;;7537218;19;20114;-74
2024/03/14 10:06:00;;;;;;;1.63;0.80;;;;;;;;;;7550785;19;20018;-73
2024/03/14 10:08:44;;;;;;;0.93;0.65;;;;;;;;;;7547231;19;20025;-74
2024/03/14 10:11:21;;;;;;;15.45;1.70;;;;;;;;;;7545293;19;20022;-75
2024/03/14 10:13:54;;;;;;;3.38;0.90;;;;;;;;;;7562348;19;20109;-74
2024/03/14 10:16:27;;;;;;;1.45;0.90;;;;;;;;;;7559381;19;20022;-74
2024/03/14 10:19:00;;;;;;;1.77;1.15;;;;;;;;;;7564371;19;20022;-74
2024/03/14 10:21:34;;;;;;;2.03;1.00;;;;;;;;;;7565090;19;20483;-74
2024/03/14 10:24:09;;;;;;;5.22;1.08;;;;;;;;;;7560540;19;20853;-73
2024/03/14 10:26:44;;;;;;;1.25;0.70;;;;;;;;;;7544938;19;20041;-75
2024/03/14 10:29:17;;;;;;;2.95;0.85;;;;;;;;;;7544614;19;20022;-74
2024/03/14 10:31:51;;;;;;;1.25;0.85;;;;;;;;;;7574842;19;21054;-75
2024/03/14 10:34:23;;;;;;;0.68;0.68;;;;;;;;;;7562552;19;20105;-74
2024/03/14 10:36:58;;;;;;;1.30;0.77;;;;;;;;;;7575770;19;20133;-74
2024/03/14 10:39:32;;;;;;;14.80;3.15;;;;;;;;;;7570583;19;20021;-73
2024/03/14 10:42:07;;;;;;;0.85;0.80;;;;;;;;;;7581591;19;20382;-73
2024/03/14 10:44:41;;;;;;;2.85;0.80;;;;;;;;;;7572456;19;20996;-74
2024/03/14 10:47:14;;;;;;;1.20;0.70;;;;;;;;;;7581934;19;20032;-74
2024/03/14 10:49:48;;;;;;;1.08;0.68;;;;;;;;;;7572227;19;20025;-73
2024/03/14 10:52:21;;;;;;;46.70;4.63;;;;;;;;;;7582144;19;20678;-74
2024/03/14 10:54:54;;;;;;;0.73;0.73;;;;;;;;;;7572970;19;20015;-73
2024/03/14 10:57:28;;;;;;;4.07;0.80;;;;;;;;;;7574889;19;20014;-73
2024/03/14 11:00:02;;;;;;;4.63;1.17;;;;;;;;;;7572923;19;20275;-73
2024/03/14 11:02:35;;;;;;;2.93;1.40;;;;;;;;;;7565751;19;20473;-73
2024/03/14 11:05:09;;;;;;;2.13;0.75;;;;;;;;;;7565459;19;20090;-73
2024/03/14 11:07:42;;;;;;;4.55;1.10;;;;;;;;;;7552589;19;20027;-73
2024/03/14 11:10:18;;;;;;;3.78;0.70;;;;;;;;;;7561470;19;20006;-73
2024/03/14 11:12:55;;;;;;;0.98;0.65;;;;;;;;;;7560340;19;20118;-73
2024/03/14 11:15:29;;;;;;;0.63;0.50;;;;;;;;;;7569937;19;20041;-75
2024/03/14 11:18:02;;;;;;;0.77;0.60;;;;;;;;;;7554938;19;20029;-75
2024/03/14 11:20:36;;;;;;;;;;;;;;;;;;7566217;19;20056;-73
2024/03/14 11:23:13;;;;;;;0.93;0.60;;;;;;;;;;7546685;19;19973;-75
2024/03/14 11:25:52;;;;;;;1.52;0.68;;;;;;;;;;7563940;19;20010;-75
2024/03/14 11:28:26;;;;;;;1.45;0.82;;;;;;;;;;7552997;19;20420;-73
2024/03/14 11:31:02;;;;;;;30.52;3.63;;;;;;;;;;7545701;19;20053;-75
2024/03/14 11:33:35;;;;;;;2.03;1.00;;;;;;;;;;7531050;19;20014;-74
2024/03/14 11:36:11;;;;;;;1.30;1.10;;;;;;;;;;7549777;19;20042;-73
2024/03/14 11:38:44;;;;;;;1.77;1.00;;;;;;;;;;7527362;19;20018;-73
2024/03/14 11:41:17;;;;;;;1.63;1.07;;;;;;;;;;7527511;19;20851;-73
2024/03/14 11:43:52;;;;;;;2.08;1.05;;;;;;;;;;7532180;19;20358;-74
2024/03/14 11:46:27;;;;;;;3.83;1.00;;;;;;;;;;7562778;19;20018;-74
2024/03/14 11:49:13;;;;;;;0.88;0.80;;;;;;;;;;7558904;19;20018;-75
2024/03/14 11:51:48;;;;;;;3.10;0.70;;;;;;;;;;7567104;19;20025;-75
2024/03/14 11:54:21;;;;;;;2.05;0.85;;;;;;;;;;7581157;19;20348;-75
2024/03/14 11:56:55;;;;;;;1.67;0.70;;;;;;;;;;7559729;19;20851;-74
2024/03/14 11:59:28;;;;;;;1.77;1.20;;;;;;;;;;7564735;19;20030;-72
2024/03/14 12:02:02;;;;;;;1.17;0.80;;;;;;;;;;7558873;19;20563;-72
2024/03/14 12:04:42;;;;;;;13.80;2.35;;;;;;;;;;7564609;19;20371;-74
2024/03/14 12:07:16;;;;;;;2.85;1.35;;;;;;;;;;7550231;19;20022;-73
2024/03/14 12:09:49;;;;;;;;;;;;;;;;;;7548471;19;20025;-72
2024/03/14 12:12:21;;;;;;;2.13;0.98;;;;;;;;;;7544971;19;21480;-73
2024/03/14 12:14:58;;;;;;;1.52;1.10;;;;;;;;;;7557425;19;20018;-75
2024/03/14 12:17:31;;;;;;;1.52;1.00;;;;;;;;;;7570632;19;20014;-75
2024/03/14 12:20:10;;;;;;;2.20;1.17;;;;;;;;;;7543338;19;20089;-73
2024/03/14 12:22:44;;;;;;;3.17;1.30;;;;;;;;;;7552163;19;20018;-73
2024/03/14 12:25:16;;;;;;;1.35;0.93;;;;;;;;;;7532390;19;21163;-73
2024/03/14 12:27:50;;;;;;;3.03;1.13;;;;;;;;;;7549391;19;20018;-75
2024/03/14 12:30:24;;;;;;;3.15;0.90;;;;;;;;;;7570585;19;20022;-73
2024/03/14 12:33:01;;;;;;;1.80;1.20;;;;;;;;;;7566472;19;20033;-73
2024/03/14 12:35:34;;;;;;;1.17;0.73;;;;;;;;;;7552750;19;20029;-73
2024/03/14 12:38:22;;;;;;;0.93;0.73;;;;;;;;;;7562076;19;20059;-73
2024/03/14 12:40:57;;;;;;;27.00;15.68;;;;;;;;;;7546762;19;20026;-73
2024/03/14 12:43:32;;;;;;;4.03;3.00;;;;;;;;;;7563593;19;21193;-73
2024/03/14 12:46:05;;;;;;;3.10;1.25;;;;;;;;;;7563150;19;20015;-72
2024/03/14 12:48:38;;;;;;;0.98;0.85;;;;;;;;;;7553666;19;20014;-73
2024/03/14 12:51:12;;;;;;;2.13;1.03;;;;;;;;;;7561112;19;20014;-75
2024/03/14 12:53:58;;;;;;;1.38;1.10;;;;;;;;;;7569786;19;20093;-74
2024/03/14 12:56:32;;;;;;;5.65;1.15;;;;;;;;;;7572644;19;20048;-74
2024/03/14 12:59:08;;;;;;;37.47;3.58;;;;;;;;;;7557403;19;20094;-74
2024/03/14 13:01:47;;;;;;;0.88;0.82;;;;;;;;;;7568816;19;20817;-75
2024/03/14 13:04:20;;;;;;;4.93;1.15;;;;;;;;;;7570862;19;20015;-73
2024/03/14 13:07:04;;;;;;;2.53;1.00;;;;;;;;;;7552167;19;20106;-73
2024/03/14 13:09:37;;;;;;;1.08;0.98;;;;;;;;;;7544894;19;20021;-72
2024/03/14 13:12:22;;;;;;;11.10;1.17;;;;;;;;;;7550935;19;20018;-73
2024/03/14 13:15:01;;;;;;;50.30;5.35;;;;;;;;;;7558339;19;20033;-73
2024/03/14 13:17:37;;;;;;;3.67;1.05;;;;;;;;;;7564041;19;20007;-74
2024/03/14 13:20:25;;;;;;;4.15;1.20;;;;;;;;;;7559100;19;20021;-73
2024/03/14 13:22:58;;;;;;;2.60;1.05;;;;;;;;;;7567266;19;20022;-74
2024/03/14 13:25:31;;;;;;;6.57;1.20;;;;;;;;;;7563726;19;20102;-75
2024/03/14 13:28:04;;;;;;;3.13;0.98;;;;;;;;;;7553621;19;20018;-73
2024/03/14 13:30:37;;;;;;;5.60;1.00;;;;;;;;;;7561617;19;20015;-73
2024/03/14 13:33:10;;;;;;;1.08;0.73;;;;;;;;;;7047225;19;9999703;-72
2024/03/14 13:35:44;;;;;;;2.70;0.93;;;;;;;;;;7558752;19;20014;-73
2024/03/14 13:38:17;;;;;;;3.53;0.90;;;;;;;;;;7547824;19;20098;-73
2024/03/14 13:40:51;;;;;;;0.98;0.80;;;;;;;;;;7562193;19;20061;-73
2024/03/14 13:43:24;;;;;;;1.33;0.82;;;;;;;;;;7563094;19;20017;-72
2024/03/14 13:45:57;;;;;;;5.13;1.00;;;;;;;;;;7559696;19;20082;-73
2024/03/14 13:48:32;;;;;;;10.75;1.50;;;;;;;;;;7559534;19;20034;-73
2024/03/14 13:51:07;;;;;;;3.22;0.80;;;;;;;;;;7542995;19;20086;-72
2024/03/14 13:53:41;;;;;;;2.78;0.85;;;;;;;;;;7578725;19;20036;-73
2024/03/14 13:56:16;;;;;;;7.68;0.80;;;;;;;;;;7564997;19;20018;-72
2024/03/14 13:58:48;;;;;;;1.30;0.80;;;;;;;;;;7575960;19;20017;-73
2024/03/14 14:01:21;;;;;;;5.80;1.03;;;;;;;;;;7568660;19;20022;-72
2024/03/14 14:03:56;;;;;;;;;;;;;;;;;;7575414;19;20017;-72
2024/03/14 14:06:28;;;;;;;2.33;0.63;;;;;;;;;;7559066;19;21418;-72
2024/03/14 14:09:02;;;;;;;6.00;0.95;;;;;;;;;;7549060;19;20368;-73
2024/03/14 14:11:35;;;;;;;6.22;0.80;;;;;;;;;;7562816;19;20022;-73
2024/03/14 14:14:08;;;;;;;;;;;;;;;;;;7560040;19;20785;-73
2024/03/14 14:16:42;;;;;;;0.77;0.40;;;;;;;;;;7572396;19;19914;-73
2024/03/14 14:19:15;;;;;;;4.70;0.60;;;;;;;;;;7572549;19;20018;-75
2024/03/14 14:21:48;;;;;;;0.88;0.50;;;;;;;;;;7553986;19;20153;-73
2024/03/14 14:24:21;;;;;;;0.65;0.40;;;;;;;;;;7547464;19;20029;-73
2024/03/14 14:26:55;;;;;;;4.47;0.63;;;;;;;;;;7575077;19;20059;-73
2024/03/14 14:29:29;;;;;;;1.67;0.50;;;;;;;;;;7579627;19;20025;-72
2024/03/14 14:32:01;;;;;;;1.08;0.50;;;;;;;;;;7565663;19;20022;-74
2024/03/14 14:34:34;;;;;;;3.30;0.70;;;;;;;;;;7566233;19;20014;-74
2024/03/14 14:37:07;;;;;;;0.73;0.57;;;;;;;;;;7566644;19;20023;-73
2024/03/14 14:39:40;;;;;;;0.60;0.50;;;;;;;;;;7559134;19;20070;-72
2024/03/14 14:42:15;;;;;;;3.47;0.40;;;;;;;;;;7555147;19;20015;-72
2024/03/14 14:44:50;;;;;;;0.90;0.50;;;;;;;;;;7568293;19;20101;-74
2024/03/14 14:47:24;;;;;;;1.02;0.45;;;;;;;;;;7549984;19;20022;-75
2024/03/14 14:49:56;;;;;;;0.90;0.60;;;;;;;;;;7577904;19;20904;-74
2024/03/14 14:52:29;;;;;;;1.02;0.52;;;;;;;;;;7553341;19;20011;-73
2024/03/14 14:55:11;;;;;;;4.30;0.75;;;;;;;;;;7556736;19;20368;-72
2024/03/14 14:57:49;;;;;;;1.00;0.40;;;;;;;;;;7569019;19;20017;-76
2024/03/14 15:00:23;;;;;;;0.63;0.32;;;;;;;;;;7542926;19;22343;-75
2024/03/14 15:02:56;;;;;;;2.40;0.43;;;;;;;;;;7563737;19;20019;-72
2024/03/14 15:05:29;;;;;;;1.95;0.60;;;;;;;;;;7555349;19;20011;-71
2024/03/14 15:08:02;;;;;;;3.22;0.50;;;;;;;;;;7540418;19;20015;-70
2024/03/14 15:10:37;;;;;;;3.75;0.43;;;;;;;;;;7561772;19;20040;-72
2024/03/14 15:13:10;;;;;;;0.90;0.40;;;;;;;;;;7538316;19;20018;-75
2024/03/14 15:15:48;;;;;;;3.85;0.50;;;;;;;;;;7567178;19;21877;-75
2024/03/14 15:18:21;;;;;;;2.50;0.30;;;;;;;;;;7556075;19;20113;-72
2024/03/14 15:20:54;;;;;;;7.32;0.80;;;;;;;;;;7555618;19;21267;-73
2024/03/14 15:23:27;;;;;;;2.15;0.30;;;;;;;;;;7552741;19;20037;-73
2024/03/14 15:26:04;;;;;;;0.70;0.40;;;;;;;;;;7561075;19;20022;-74
2024/03/14 15:28:37;;;;;;;1.67;0.50;;;;;;;;;;7563182;19;20107;-73